createdAt,value
2023-03-20T00:01:44.397Z,53.94
2023-03-20T00:05:09.098Z,54.18
2023-03-20T00:08:29.607Z,55.20
2023-03-20T00:12:07.989Z,56.34
2023-03-20T00:15:36.939Z,64.90
2023-03-20T00:18:46.639Z,68.52
2023-03-20T00:22:16.346Z,66.08
2023-03-20T00:25:54.659Z,58.56
2023-03-20T00:28:59.592Z,54.82
2023-03-20T00:32:14.613Z,55.25
2023-03-20T00:35:36.293Z,56.13
2023-03-20T00:39:08.842Z,57.06
2023-03-20T00:42:24.353Z,65.25
2023-03-20T00:45:38.708Z,69.07
2023-03-20T00:49:08.330Z,67.00
2023-03-20T00:52:08.349Z,64.59
2023-03-20T00:55:27.202Z,58.18
2023-03-20T00:58:49.342Z,53.99
2023-03-20T01:02:01.469Z,54.02
2023-03-20T01:05:12.927Z,54.43
2023-03-20T01:08:47.658Z,53.82
2023-03-20T01:12:02.931Z,56.41
2023-03-20T01:15:22.935Z,63.76
2023-03-20T01:18:43.997Z,68.00
2023-03-20T01:21:53.057Z,66.53
2023-03-20T01:25:04.134Z,64.25
2023-03-20T01:28:32.825Z,57.50
2023-03-20T01:31:42.793Z,54.53
2023-03-20T01:34:53.420Z,55.07
2023-03-20T01:38:19.283Z,56.75
2023-03-20T01:41:54.596Z,68.65
2023-03-20T01:45:23.715Z,71.99
2023-03-20T01:48:45.544Z,70.02
2023-03-20T01:52:05.434Z,68.12
2023-03-20T01:55:08.520Z,66.87
2023-03-20T01:58:33.217Z,65.11
2023-03-20T02:01:48.494Z,63.38
2023-03-20T02:04:41.881Z,62.27
2023-03-20T02:08:03.069Z,57.82
2023-03-20T02:11:28.389Z,55.89
2023-03-20T02:14:37.929Z,56.50
2023-03-20T02:17:54.736Z,64.21
2023-03-20T02:21:33.982Z,66.48
2023-03-20T02:25:02.472Z,65.33
2023-03-20T02:28:27.149Z,63.50
2023-03-20T02:31:54.820Z,57.98
2023-03-20T02:35:38.553Z,55.62
2023-03-20T02:39:01.367Z,56.61
2023-03-20T02:42:23.555Z,63.54
2023-03-20T02:46:10.598Z,65.86
2023-03-20T02:49:52.579Z,65.35
2023-03-20T02:53:12.052Z,63.76
2023-03-20T02:56:50.265Z,62.46
2023-03-20T03:00:27.359Z,56.81
2023-03-20T03:03:52.765Z,54.97
2023-03-20T03:13:36.962Z,65.94
2023-03-20T03:16:41.891Z,64.54
2023-03-20T03:20:14.473Z,63.11
2023-03-20T03:23:29.949Z,57.39
2023-03-20T03:26:49.529Z,55.33
2023-03-20T03:29:56.627Z,56.12
2023-03-20T03:33:08.683Z,59.46
2023-03-20T03:40:24.838Z,66.70
2023-03-20T03:43:41.420Z,64.11
2023-03-20T03:46:43.454Z,57.26
2023-03-20T03:50:04.968Z,54.28
2023-03-20T03:53:37.104Z,54.82
2023-03-20T03:56:36.093Z,55.86
2023-03-20T04:00:05.090Z,62.25
2023-03-20T04:03:38.389Z,66.73
2023-03-20T04:06:53.872Z,65.12
2023-03-20T04:10:09.557Z,58.45
2023-03-20T04:13:33.848Z,55.72
2023-03-20T04:16:55.480Z,56.48
2023-03-20T04:20:11.204Z,63.32
2023-03-20T04:23:23.359Z,66.99
2023-03-20T04:26:58.809Z,66.41
2023-03-20T04:30:11.014Z,65.10
2023-03-20T04:33:13.124Z,64.14
2023-03-20T04:37:01.540Z,64.02
2023-03-20T04:40:23.977Z,57.11
2023-03-20T04:43:39.575Z,55.49
2023-03-20T04:47:19.792Z,55.91
2023-03-20T04:50:46.886Z,63.37
2023-03-20T04:53:55.698Z,65.44
2023-03-20T04:57:20.200Z,64.12
2023-03-20T05:00:45.116Z,62.78
2023-03-20T05:04:10.352Z,57.42
2023-03-20T05:07:22.095Z,54.68
2023-03-20T05:10:50.048Z,55.77
2023-03-20T05:14:12.614Z,63.42
2023-03-20T05:17:42.122Z,65.98
2023-03-20T05:21:26.687Z,64.28
2023-03-20T05:25:02.654Z,63.10
2023-03-20T05:28:38.197Z,56.88
2023-03-20T05:32:13.133Z,55.40
2023-03-20T05:35:48.796Z,56.72
2023-03-20T05:39:06.214Z,63.90
2023-03-20T05:42:40.444Z,67.45
2023-03-20T05:46:16.236Z,65.61
2023-03-20T05:49:47.791Z,63.79
2023-03-20T05:53:12.364Z,62.44
2023-03-20T05:56:33.568Z,55.76
2023-03-20T05:59:16.064Z,54.80
2023-03-20T06:02:19.493Z,55.70
2023-03-20T06:04:57.582Z,57.32
2023-03-20T06:07:35.058Z,61.87
2023-03-20T06:10:11.533Z,65.78
2023-03-20T06:12:45.965Z,65.07
2023-03-20T06:15:17.707Z,63.63
2023-03-20T06:18:06.982Z,62.21
2023-03-20T06:20:44.150Z,58.18
2023-03-20T06:23:25.782Z,55.59
2023-03-20T06:25:58.321Z,56.00
2023-03-20T06:28:30.602Z,57.69
2023-03-20T06:31:13.022Z,62.10
2023-03-20T06:33:47.321Z,65.81
2023-03-20T06:36:23.560Z,64.96
2023-03-20T06:38:58.286Z,63.41
2023-03-20T06:41:37.503Z,59.15
2023-03-20T06:44:19.020Z,55.84
2023-03-20T06:47:09.499Z,55.77
2023-03-20T06:49:40.644Z,57.82
2023-03-20T06:52:16.962Z,62.56
2023-03-20T06:54:52.237Z,66.18
2023-03-20T06:57:26.091Z,65.40
2023-03-20T07:00:04.461Z,64.27
2023-03-20T07:02:36.379Z,63.00
2023-03-20T07:05:14.493Z,58.98
2023-03-20T07:07:46.930Z,55.69
2023-03-20T07:10:19.882Z,56.18
2023-03-20T07:12:55.227Z,57.02
2023-03-20T07:15:27.615Z,58.45
2023-03-20T07:17:59.761Z,62.63
2023-03-20T07:20:31.628Z,66.23
2023-03-20T07:23:03.070Z,65.06
2023-03-20T07:25:42.310Z,63.66
2023-03-20T07:28:13.852Z,62.24
2023-03-20T07:30:51.138Z,58.15
2023-03-20T07:33:32.425Z,55.67
2023-03-20T07:36:07.733Z,56.16
2023-03-20T07:38:39.527Z,57.69
2023-03-20T07:41:15.977Z,61.99
2023-03-20T07:43:57.479Z,65.74
2023-03-20T07:46:41.097Z,64.43
2023-03-20T07:49:15.614Z,62.86
2023-03-20T07:51:48.055Z,58.16
2023-03-20T07:54:25.578Z,56.52
2023-03-20T07:56:59.893Z,57.90
2023-03-20T07:59:33.804Z,62.20
2023-03-20T08:02:25.936Z,66.09
2023-03-20T08:05:06.391Z,65.52
2023-03-20T08:08:06.105Z,63.82
2023-03-20T08:10:48.408Z,62.99
2023-03-20T08:13:35.120Z,59.20
2023-03-20T08:16:25.719Z,56.22
2023-03-20T08:19:02.489Z,56.95
2023-03-20T08:21:50.221Z,58.20
2023-03-20T08:24:40.308Z,63.43
2023-03-20T08:27:31.417Z,66.61
2023-03-20T08:30:11.980Z,64.72
2023-03-20T08:32:48.194Z,62.66
2023-03-20T08:35:33.342Z,57.96
2023-03-20T08:38:12.939Z,54.36
2023-03-20T08:40:50.441Z,55.23
2023-03-20T08:43:28.036Z,56.02
2023-03-20T08:46:00.252Z,57.40
2023-03-20T08:48:44.242Z,62.10
2023-03-20T08:51:21.546Z,64.83
2023-03-20T08:53:53.417Z,61.99
2023-03-20T08:56:26.992Z,57.07
2023-03-20T08:59:05.404Z,54.26
2023-03-20T09:01:48.629Z,54.12
2023-03-20T09:04:21.812Z,54.65
2023-03-20T09:07:04.318Z,56.23
2023-03-20T09:09:41.613Z,57.09
2023-03-20T09:12:15.924Z,57.92
2023-03-20T09:14:47.476Z,59.24
2023-03-20T09:17:18.714Z,63.33
2023-03-20T09:19:50.267Z,64.32
2023-03-20T09:22:22.045Z,63.23
2023-03-20T09:24:58.905Z,57.86
2023-03-20T09:27:33.318Z,55.28
2023-03-20T09:30:07.593Z,55.63
2023-03-20T09:32:39.398Z,56.51
2023-03-20T09:35:17.497Z,57.58
2023-03-20T09:37:48.435Z,58.79
2023-03-20T09:40:28.555Z,59.11
2023-03-20T09:43:21.232Z,62.98
2023-03-20T09:45:59.953Z,65.92
2023-03-20T09:48:54.280Z,63.79
2023-03-20T09:52:05.526Z,56.69
2023-03-20T09:54:53.133Z,53.50
2023-03-20T09:57:27.546Z,54.42
2023-03-20T10:00:04.370Z,55.32
2023-03-20T10:03:02.320Z,55.75
2023-03-20T10:05:38.245Z,56.26
2023-03-20T10:08:17.234Z,57.05
2023-03-20T10:10:55.497Z,57.63
2023-03-20T10:14:02.889Z,57.66
2023-03-20T10:16:52.988Z,57.35
2023-03-20T10:19:32.825Z,57.92
2023-03-20T10:22:29.868Z,58.38
2023-03-20T10:25:02.504Z,59.42
2023-03-20T10:27:43.568Z,59.66
2023-03-20T10:30:38.779Z,58.94
2023-03-20T10:33:36.591Z,58.08
2023-03-20T10:36:29.238Z,57.53
2023-03-20T10:39:35.714Z,57.18
2023-03-20T10:42:06.940Z,57.52
2023-03-20T10:44:42.496Z,57.95
2023-03-20T10:47:14.704Z,57.93
2023-03-20T10:50:18.818Z,58.60
2023-03-20T10:52:48.794Z,58.67
2023-03-20T10:55:21.768Z,59.52
2023-03-20T10:58:19.135Z,59.44
2023-03-20T11:00:51.214Z,59.53
2023-03-20T11:03:25.532Z,60.04
2023-03-20T11:06:22.034Z,60.16
2023-03-20T11:08:52.786Z,60.07
2023-03-20T11:11:29.047Z,60.16
2023-03-20T11:13:58.856Z,60.32
2023-03-20T11:16:37.100Z,60.51
2023-03-20T11:19:07.806Z,61.06
2023-03-20T11:21:46.329Z,61.05
2023-03-20T11:24:26.727Z,60.49
2023-03-20T11:26:56.175Z,59.83
2023-03-20T11:29:27.113Z,59.63
2023-03-20T11:31:56.128Z,59.49
2023-03-20T11:34:27.948Z,58.99
2023-03-20T11:37:09.737Z,58.81
2023-03-20T11:39:40.369Z,58.73
2023-03-20T11:42:23.881Z,58.57
2023-03-20T11:45:01.194Z,57.90
2023-03-20T11:47:33.592Z,58.11
2023-03-20T11:50:05.832Z,57.85
2023-03-20T11:52:37.652Z,58.21
2023-03-20T11:55:24.911Z,58.11
2023-03-20T11:57:59.306Z,58.19
2023-03-20T12:00:39.695Z,58.56
2023-03-20T12:03:33.412Z,59.32
2023-03-20T12:06:02.719Z,59.70
2023-03-20T12:08:32.483Z,60.19
2023-03-20T12:11:07.313Z,60.02
2023-03-20T12:13:43.768Z,59.91
2023-03-20T12:16:15.414Z,59.56
2023-03-20T12:18:56.081Z,59.77
2023-03-20T12:21:41.228Z,59.03
2023-03-20T12:24:30.835Z,58.24
2023-03-20T12:27:01.457Z,57.40
2023-03-20T12:29:35.514Z,57.45
2023-03-20T12:32:11.269Z,57.60
2023-03-20T12:34:50.554Z,57.22
2023-03-20T12:37:22.212Z,57.47
2023-03-20T12:39:54.871Z,57.75
2023-03-20T12:42:52.560Z,54.56
2023-03-20T12:45:23.419Z,53.41
2023-03-20T12:48:30.261Z,54.00
2023-03-20T12:51:21.676Z,55.04
2023-03-20T12:54:03.995Z,55.66
2023-03-20T12:56:41.166Z,55.60
2023-03-20T12:59:14.962Z,55.02
2023-03-20T13:01:57.749Z,55.08
2023-03-20T13:04:44.080Z,55.50
2023-03-20T13:07:24.589Z,55.96
2023-03-20T13:10:02.342Z,56.26
2023-03-20T13:12:57.445Z,57.04
2023-03-20T13:15:41.081Z,58.05
2023-03-20T13:18:22.971Z,59.21
2023-03-20T13:20:53.395Z,59.48
2023-03-20T13:23:31.399Z,59.39
2023-03-20T13:26:05.918Z,58.88
2023-03-20T13:28:46.687Z,58.31
2023-03-20T13:31:38.843Z,57.85
2023-03-20T13:34:26.256Z,58.61
2023-03-20T13:37:21.832Z,59.55
2023-03-20T13:40:25.874Z,60.46
2023-03-20T13:43:16.880Z,61.23
2023-03-20T13:45:48.945Z,62.86
2023-03-20T13:48:29.107Z,67.81
2023-03-20T13:51:20.510Z,68.43
2023-03-20T13:54:22.486Z,70.23
2023-03-20T13:57:45.019Z,66.97
2023-03-20T14:01:24.498Z,59.83
2023-03-20T14:04:34.622Z,59.21
2023-03-20T14:12:02.313Z,66.43
2023-03-20T14:25:49.595Z,57.89
2023-03-20T14:29:12.959Z,58.69
2023-03-20T14:32:22.706Z,59.42
2023-03-20T14:35:37.740Z,65.40
2023-03-20T14:39:08.105Z,64.85
2023-03-20T14:42:32.801Z,64.04
2023-03-20T15:14:22.597Z,57.70
2023-03-20T15:17:52.781Z,59.39
2023-03-20T15:20:58.444Z,66.38
2023-03-20T15:24:18.730Z,66.90
2023-03-20T15:27:18.132Z,65.85
2023-03-20T15:30:37.618Z,63.64
2023-03-20T15:33:45.914Z,58.75
2023-03-20T15:36:52.181Z,57.36
2023-03-20T15:40:14.221Z,58.97
2023-03-20T15:43:43.624Z,64.93
2023-03-20T15:46:56.031Z,64.96
2023-03-20T15:50:19.449Z,63.39
2023-03-20T15:53:28.450Z,61.78
2023-03-20T15:56:49.028Z,57.83
2023-03-20T15:59:46.287Z,55.70
2023-03-20T16:02:49.783Z,57.79
2023-03-20T16:06:18.473Z,63.91
2023-03-20T16:09:30.920Z,66.73
2023-03-20T16:12:58.657Z,64.65
2023-03-20T16:16:18.560Z,61.27
2023-03-20T16:19:10.568Z,56.60
2023-03-20T16:22:54.210Z,56.66
2023-03-20T16:26:10.824Z,58.44
2023-03-20T16:29:23.635Z,64.96
2023-03-20T16:33:03.200Z,66.72
2023-03-20T16:36:26.133Z,65.82
2023-03-20T16:39:40.486Z,62.29
2023-03-20T16:42:54.864Z,58.26
2023-03-20T16:46:05.609Z,55.67
2023-03-20T16:49:29.869Z,56.94
2023-03-20T16:52:45.589Z,62.88
2023-03-20T16:56:02.520Z,64.29
2023-03-20T16:59:03.641Z,64.14
2023-03-20T17:03:08.479Z,61.85
2023-03-20T17:06:38.805Z,56.30
2023-03-20T17:17:22.698Z,65.85
2023-03-20T17:20:42.482Z,67.44
2023-03-20T17:27:25.113Z,64.51
2023-03-20T17:30:55.647Z,61.99
2023-03-20T17:34:30.890Z,56.84
2023-03-20T17:37:58.454Z,55.33
2023-03-20T17:41:28.067Z,57.10
2023-03-20T17:44:38.735Z,64.05
2023-03-20T17:48:00.772Z,66.73
2023-03-20T17:51:27.344Z,64.85
2023-03-20T17:54:57.951Z,63.47
2023-03-20T17:58:28.282Z,61.58
2023-03-20T18:01:49.218Z,56.77
2023-03-20T18:05:14.481Z,55.64
2023-03-20T18:08:36.122Z,57.62
2023-03-20T18:12:07.040Z,63.83
2023-03-20T18:15:44.775Z,66.06
2023-03-20T18:19:21.137Z,64.68
2023-03-20T18:22:39.073Z,62.62
2023-03-20T18:26:20.590Z,56.63
2023-03-20T18:29:58.392Z,55.88
2023-03-20T18:33:42.322Z,56.81
2023-03-20T18:37:31.431Z,64.40
2023-03-20T18:41:05.816Z,66.28
2023-03-20T18:44:37.880Z,64.67
2023-03-20T18:47:58.319Z,63.31
2023-03-20T18:51:35.275Z,56.85
2023-03-20T18:54:41.733Z,54.43
2023-03-20T18:58:30.937Z,55.13
2023-03-20T19:02:20.075Z,64.43
2023-03-20T19:05:52.784Z,66.12
2023-03-20T19:09:21.856Z,64.48
2023-03-20T19:12:43.525Z,62.15
2023-03-20T19:16:14.927Z,57.46
2023-03-20T19:19:25.708Z,55.87
2023-03-20T19:23:14.865Z,59.37
2023-03-20T19:26:46.959Z,67.03
2023-03-20T19:30:17.890Z,67.33
2023-03-20T19:34:07.721Z,66.00
2023-03-20T19:37:57.063Z,65.41
2023-03-20T19:41:05.382Z,63.67
2023-03-20T19:44:30.719Z,62.64
2023-03-20T19:48:08.483Z,57.03
2023-03-20T19:51:29.282Z,55.37
2023-03-20T19:55:03.181Z,58.15
2023-03-20T19:58:40.490Z,64.52
2023-03-20T20:02:09.983Z,66.82
2023-03-20T20:05:49.856Z,65.40
2023-03-20T20:09:39.017Z,63.63
2023-03-20T20:13:27.659Z,62.99
2023-03-20T20:16:53.963Z,56.55
2023-03-20T20:20:40.793Z,54.68
2023-03-20T20:24:16.227Z,56.12
2023-03-20T20:27:45.354Z,64.01
2023-03-20T20:31:24.616Z,65.93
2023-03-20T20:38:48.869Z,62.71
2023-03-20T20:42:17.233Z,57.11
2023-03-20T20:45:53.884Z,55.65
2023-03-20T20:49:43.061Z,57.25
2023-03-20T20:53:02.134Z,64.34
2023-03-20T20:56:50.077Z,66.20
2023-03-20T21:00:49.465Z,64.34
2023-03-20T21:04:29.630Z,63.30
2023-03-20T21:08:07.327Z,57.10
2023-03-20T21:11:47.490Z,55.35
2023-03-20T21:15:35.536Z,57.08
2023-03-20T21:19:24.911Z,65.08
2023-03-20T21:22:59.356Z,66.81
2023-03-20T21:26:42.258Z,65.26
2023-03-20T21:30:15.655Z,63.62
2023-03-20T21:33:40.168Z,62.18
2023-03-20T21:41:05.282Z,53.87
2023-03-20T21:45:35.706Z,55.09
2023-03-20T21:49:40.055Z,56.19
2023-03-20T21:57:07.969Z,67.20
2023-03-20T22:01:14.159Z,65.02
2023-03-20T22:05:02.053Z,63.62
2023-03-20T22:12:23.045Z,55.03
2023-03-20T22:20:19.619Z,63.82
2023-03-20T22:24:17.205Z,66.33
2023-03-20T22:31:47.112Z,63.06
2023-03-20T22:35:51.790Z,56.42
2023-03-20T22:39:22.094Z,54.36
2023-03-20T22:43:05.842Z,55.06
2023-03-20T22:46:44.890Z,56.61
2023-03-20T22:50:19.955Z,64.82
2023-03-20T22:53:41.055Z,67.94
2023-03-20T22:57:01.967Z,65.98
2023-03-20T23:00:25.648Z,63.91
2023-03-20T23:03:56.680Z,62.59
2023-03-20T23:07:22.401Z,57.04
2023-03-20T23:10:47.816Z,54.30
2023-03-20T23:14:08.740Z,55.34
2023-03-20T23:17:33.877Z,56.45
2023-03-20T23:20:51.154Z,63.75
2023-03-20T23:24:18.307Z,66.65
2023-03-20T23:27:50.002Z,65.29
2023-03-20T23:31:07.609Z,64.18
2023-03-20T23:34:31.683Z,62.57
2023-03-20T23:38:11.431Z,56.95
2023-03-20T23:42:12.169Z,54.56
2023-03-20T23:45:43.145Z,55.36
2023-03-20T23:49:12.830Z,63.76
2023-03-20T23:52:38.386Z,66.94
2023-03-20T23:55:57.821Z,64.90
2023-03-20T23:59:37.675Z,63.64
